sensor_id;sensor_type;location;lat;lon;timestamp;pressure;altitude;pressure_sealevel;temperature;humidity
59600;BME280;61855;55.030;73.326;2022-08-01T00:01:43;99184.34;;;17.91;nan
59600;BME280;61855;55.030;73.326;2022-08-01T00:04:09;99184.66;;;17.95;nan
59600;BME280;61855;55.030;73.326;2022-08-01T00:06:35;99193.19;;;17.98;nan
59600;BME280;61855;55.030;73.326;2022-08-01T00:09:11;99213.13;;;17.99;nan
59600;BME280;61855;55.030;73.326;2022-08-01T00:11:37;99207.97;;;18.02;nan
59600;BME280;61855;55.030;73.326;2022-08-01T00:14:12;99203.34;;;18.03;nan
59600;BME280;61855;55.030;73.326;2022-08-01T00:16:38;99205.00;;;18.04;nan
59600;BME280;61855;55.030;73.326;2022-08-01T00:19:04;99212.69;;;18.07;nan
59600;BME280;61855;55.030;73.326;2022-08-01T00:21:30;99225.84;;;18.10;nan
59600;BME280;61855;55.030;73.326;2022-08-01T00:23:56;99216.59;;;18.11;nan
59600;BME280;61855;55.030;73.326;2022-08-01T00:26:25;99210.88;;;18.12;nan
59600;BME280;61855;55.030;73.326;2022-08-01T00:28:51;99212.53;;;18.13;nan
59600;BME280;61855;55.030;73.326;2022-08-01T00:31:17;99214.50;;;18.18;nan
59600;BME280;61855;55.030;73.326;2022-08-01T00:33:56;99217.56;;;18.21;nan
59600;BME280;61855;55.030;73.326;2022-08-01T00:36:24;99212.09;;;18.21;nan
59600;BME280;61855;55.030;73.326;2022-08-01T00:38:50;99211.59;;;18.24;nan
59600;BME280;61855;55.030;73.326;2022-08-01T00:41:16;99222.84;;;18.28;nan
59600;BME280;61855;55.030;73.326;2022-08-01T00:43:42;99216.88;;;18.31;nan
59600;BME280;61855;55.030;73.326;2022-08-01T00:46:08;99221.00;;;18.34;nan
59600;BME280;61855;55.030;73.326;2022-08-01T00:48:40;99219.44;;;18.38;nan
59600;BME280;61855;55.030;73.326;2022-08-01T00:51:07;99226.56;;;18.39;nan
59600;BME280;61855;55.030;73.326;2022-08-01T00:53:34;99214.56;;;18.40;nan
59600;BME280;61855;55.030;73.326;2022-08-01T00:56:01;99237.91;;;18.47;nan
59600;BME280;61855;55.030;73.326;2022-08-01T00:58:28;99241.81;;;18.51;nan
59600;BME280;61855;55.030;73.326;2022-08-01T01:00:56;99235.59;;;18.56;nan
59600;BME280;61855;55.030;73.326;2022-08-01T01:03:24;99237.81;;;18.59;nan
59600;BME280;61855;55.030;73.326;2022-08-01T01:17:11;99247.63;;;18.76;nan
59600;BME280;61855;55.030;73.326;2022-08-01T01:19:51;99238.91;;;18.79;nan
59600;BME280;61855;55.030;73.326;2022-08-01T01:22:50;99246.09;;;18.85;nan
59600;BME280;61855;55.030;73.326;2022-08-01T01:30:51;99235.84;;;18.98;nan
59600;BME280;61855;55.030;73.326;2022-08-01T01:33:21;99243.63;;;19.06;nan
59600;BME280;61855;55.030;73.326;2022-08-01T01:35:52;99240.94;;;19.11;nan
59600;BME280;61855;55.030;73.326;2022-08-01T01:38:28;99246.22;;;19.17;nan
59600;BME280;61855;55.030;73.326;2022-08-01T01:40:55;99248.44;;;19.20;nan
59600;BME280;61855;55.030;73.326;2022-08-01T01:43:23;99250.16;;;19.26;nan
59600;BME280;61855;55.030;73.326;2022-08-01T01:45:56;99251.88;;;19.32;nan
59600;BME280;61855;55.030;73.326;2022-08-01T01:48:23;99253.88;;;19.37;nan
59600;BME280;61855;55.030;73.326;2022-08-01T01:50:52;99250.94;;;19.43;nan
59600;BME280;61855;55.030;73.326;2022-08-01T01:53:20;99261.41;;;19.51;nan
59600;BME280;61855;55.030;73.326;2022-08-01T01:55:50;99254.91;;;19.57;nan
59600;BME280;61855;55.030;73.326;2022-08-01T01:58:19;99251.94;;;19.64;nan
59600;BME280;61855;55.030;73.326;2022-08-01T02:00:47;99244.06;;;19.68;nan
59600;BME280;61855;55.030;73.326;2022-08-01T02:03:14;99251.56;;;19.77;nan
59600;BME280;61855;55.030;73.326;2022-08-01T02:05:42;99244.72;;;19.80;nan
59600;BME280;61855;55.030;73.326;2022-08-01T02:08:10;99254.34;;;19.87;nan
59600;BME280;61855;55.030;73.326;2022-08-01T02:10:39;99259.09;;;19.92;nan
59600;BME280;61855;55.030;73.326;2022-08-01T02:13:06;99266.50;;;19.96;nan
59600;BME280;61855;55.030;73.326;2022-08-01T02:15:40;99272.03;;;20.01;nan
59600;BME280;61855;55.030;73.326;2022-08-01T02:18:07;99273.72;;;20.07;nan
59600;BME280;61855;55.030;73.326;2022-08-01T02:20:36;99273.75;;;20.12;nan
59600;BME280;61855;55.030;73.326;2022-08-01T02:23:11;99275.16;;;20.15;nan
59600;BME280;61855;55.030;73.326;2022-08-01T02:25:52;99282.91;;;20.23;nan
59600;BME280;61855;55.030;73.326;2022-08-01T02:28:25;99276.41;;;20.29;nan
59600;BME280;61855;55.030;73.326;2022-08-01T02:31:00;99276.44;;;20.34;nan
59600;BME280;61855;55.030;73.326;2022-08-01T02:33:41;99280.03;;;20.40;nan
59600;BME280;61855;55.030;73.326;2022-08-01T02:36:13;99279.50;;;20.43;nan
59600;BME280;61855;55.030;73.326;2022-08-01T02:38:43;99279.00;;;20.46;nan
59600;BME280;61855;55.030;73.326;2022-08-01T02:41:19;99280.63;;;20.47;nan
59600;BME280;61855;55.030;73.326;2022-08-01T02:43:50;99276.28;;;20.51;nan
59600;BME280;61855;55.030;73.326;2022-08-01T02:46:48;99275.78;;;20.59;nan
59600;BME280;61855;55.030;73.326;2022-08-01T02:49:16;99279.94;;;20.66;nan
59600;BME280;61855;55.030;73.326;2022-08-01T02:51:51;99281.88;;;20.71;nan
59600;BME280;61855;55.030;73.326;2022-08-01T02:54:20;99279.47;;;20.79;nan
59600;BME280;61855;55.030;73.326;2022-08-01T02:56:48;99285.53;;;20.81;nan
59600;BME280;61855;55.030;73.326;2022-08-01T02:59:18;99293.00;;;20.96;nan
59600;BME280;61855;55.030;73.326;2022-08-01T03:01:45;99280.41;;;21.00;nan
59600;BME280;61855;55.030;73.326;2022-08-01T03:04:12;99289.34;;;21.27;nan
59600;BME280;61855;55.030;73.326;2022-08-01T03:06:44;99294.38;;;21.55;nan
59600;BME280;61855;55.030;73.326;2022-08-01T03:09:11;99288.66;;;21.82;nan
59600;BME280;61855;55.030;73.326;2022-08-01T03:11:39;99299.44;;;22.09;nan
59600;BME280;61855;55.030;73.326;2022-08-01T03:14:09;99301.09;;;22.35;nan
59600;BME280;61855;55.030;73.326;2022-08-01T03:16:38;99293.97;;;22.64;nan
59600;BME280;61855;55.030;73.326;2022-08-01T03:19:07;99284.88;;;22.74;nan
59600;BME280;61855;55.030;73.326;2022-08-01T03:21:35;99294.50;;;22.86;nan
59600;BME280;61855;55.030;73.326;2022-08-01T03:24:03;99295.81;;;22.94;nan
59600;BME280;61855;55.030;73.326;2022-08-01T03:26:33;99299.38;;;23.05;nan
59600;BME280;61855;55.030;73.326;2022-08-01T03:29:05;99305.13;;;23.13;nan
59600;BME280;61855;55.030;73.326;2022-08-01T03:31:37;99298.22;;;23.21;nan
59600;BME280;61855;55.030;73.326;2022-08-01T03:34:04;99308.91;;;23.32;nan
59600;BME280;61855;55.030;73.326;2022-08-01T03:36:32;99314.72;;;23.26;nan
59600;BME280;61855;55.030;73.326;2022-08-01T03:39:02;99308.13;;;23.22;nan
59600;BME280;61855;55.030;73.326;2022-08-01T03:41:33;99306.47;;;23.26;nan
59600;BME280;61855;55.030;73.326;2022-08-01T03:44:05;99297.38;;;23.25;nan
59600;BME280;61855;55.030;73.326;2022-08-01T03:46:48;99307.81;;;23.28;nan
59600;BME280;61855;55.030;73.326;2022-08-01T03:49:22;99322.97;;;23.26;nan
59600;BME280;61855;55.030;73.326;2022-08-01T03:51:49;99317.78;;;23.14;nan
59600;BME280;61855;55.030;73.326;2022-08-01T03:54:22;99318.59;;;23.25;nan
59600;BME280;61855;55.030;73.326;2022-08-01T03:56:49;99323.81;;;23.36;nan
59600;BME280;61855;55.030;73.326;2022-08-01T03:59:17;99326.22;;;23.53;nan
59600;BME280;61855;55.030;73.326;2022-08-01T04:01:45;99330.34;;;23.50;nan
59600;BME280;61855;55.030;73.326;2022-08-01T04:04:22;99341.09;;;23.42;nan
59600;BME280;61855;55.030;73.326;2022-08-01T04:06:48;99330.41;;;23.35;nan
59600;BME280;61855;55.030;73.326;2022-08-01T04:09:20;99326.81;;;23.30;nan
59600;BME280;61855;55.030;73.326;2022-08-01T04:11:47;99325.41;;;23.47;nan
59600;BME280;61855;55.030;73.326;2022-08-01T04:14:14;99330.25;;;23.66;nan
59600;BME280;61855;55.030;73.326;2022-08-01T04:16:40;99321.72;;;23.72;nan
59600;BME280;61855;55.030;73.326;2022-08-01T04:19:06;99330.50;;;23.74;nan
59600;BME280;61855;55.030;73.326;2022-08-01T04:21:34;99315.59;;;23.80;nan
59600;BME280;61855;55.030;73.326;2022-08-01T04:24:13;99335.91;;;23.89;nan
59600;BME280;61855;55.030;73.326;2022-08-01T04:26:43;99331.03;;;23.76;nan
59600;BME280;61855;55.030;73.326;2022-08-01T04:29:19;99345.13;;;23.75;nan
59600;BME280;61855;55.030;73.326;2022-08-01T04:31:48;99337.97;;;23.69;nan
59600;BME280;61855;55.030;73.326;2022-08-01T04:34:17;99332.47;;;23.69;nan
59600;BME280;61855;55.030;73.326;2022-08-01T04:36:46;99336.38;;;23.58;nan
59600;BME280;61855;55.030;73.326;2022-08-01T04:39:13;99339.41;;;23.51;nan
59600;BME280;61855;55.030;73.326;2022-08-01T04:41:42;99340.84;;;23.48;nan
59600;BME280;61855;55.030;73.326;2022-08-01T04:44:09;99340.75;;;23.58;nan
59600;BME280;61855;55.030;73.326;2022-08-01T04:46:36;99334.13;;;23.70;nan
59600;BME280;61855;55.030;73.326;2022-08-01T04:49:09;99341.28;;;23.66;nan
59600;BME280;61855;55.030;73.326;2022-08-01T04:51:52;99342.97;;;23.62;nan
59600;BME280;61855;55.030;73.326;2022-08-01T04:54:36;99333.81;;;23.71;nan
59600;BME280;61855;55.030;73.326;2022-08-01T04:57:06;99342.97;;;23.62;nan
59600;BME280;61855;55.030;73.326;2022-08-01T04:59:41;99350.66;;;23.65;nan
59600;BME280;61855;55.030;73.326;2022-08-01T05:02:14;99358.13;;;23.59;nan
59600;BME280;61855;55.030;73.326;2022-08-01T05:04:41;99356.41;;;23.68;nan
59600;BME280;61855;55.030;73.326;2022-08-01T05:07:08;99352.38;;;23.55;nan
59600;BME280;61855;55.030;73.326;2022-08-01T05:09:36;99343.31;;;23.30;nan
59600;BME280;61855;55.030;73.326;2022-08-01T05:12:09;99354.06;;;23.31;nan
59600;BME280;61855;55.030;73.326;2022-08-01T05:14:36;99366.16;;;23.30;nan
59600;BME280;61855;55.030;73.326;2022-08-01T05:17:06;99359.00;;;23.34;nan
59600;BME280;61855;55.030;73.326;2022-08-01T05:19:40;99362.34;;;23.21;nan
59600;BME280;61855;55.030;73.326;2022-08-01T05:22:10;99357.38;;;23.43;nan
59600;BME280;61855;55.030;73.326;2022-08-01T05:24:38;99366.91;;;23.61;nan
59600;BME280;61855;55.030;73.326;2022-08-01T05:27:05;99358.66;;;23.61;nan
59600;BME280;61855;55.030;73.326;2022-08-01T05:29:33;99364.78;;;23.43;nan
59600;BME280;61855;55.030;73.326;2022-08-01T05:32:00;99371.13;;;23.28;nan
59600;BME280;61855;55.030;73.326;2022-08-01T05:34:27;99370.28;;;23.33;nan
59600;BME280;61855;55.030;73.326;2022-08-01T05:36:54;99373.88;;;23.48;nan
59600;BME280;61855;55.030;73.326;2022-08-01T05:39:23;99378.53;;;23.48;nan
59600;BME280;61855;55.030;73.326;2022-08-01T05:41:49;99379.09;;;23.30;nan
59600;BME280;61855;55.030;73.326;2022-08-01T05:44:15;99375.88;;;23.13;nan
59600;BME280;61855;55.030;73.326;2022-08-01T05:46:42;99378.31;;;23.29;nan
59600;BME280;61855;55.030;73.326;2022-08-01T05:49:08;99377.97;;;23.51;nan
59600;BME280;61855;55.030;73.326;2022-08-01T05:51:34;99387.31;;;23.60;nan
59600;BME280;61855;55.030;73.326;2022-08-01T05:54:00;99384.47;;;23.75;nan
59600;BME280;61855;55.030;73.326;2022-08-01T05:56:26;99381.16;;;23.83;nan
59600;BME280;61855;55.030;73.326;2022-08-01T05:58:52;99384.59;;;24.04;nan
59600;BME280;61855;55.030;73.326;2022-08-01T06:01:21;99392.59;;;24.10;nan
59600;BME280;61855;55.030;73.326;2022-08-01T06:03:48;99383.88;;;23.88;nan
59600;BME280;61855;55.030;73.326;2022-08-01T06:06:14;99388.94;;;23.66;nan
59600;BME280;61855;55.030;73.326;2022-08-01T06:08:40;99399.38;;;23.74;nan
59600;BME280;61855;55.030;73.326;2022-08-01T06:11:07;99384.72;;;23.89;nan
59600;BME280;61855;55.030;73.326;2022-08-01T06:13:43;99387.97;;;23.96;nan
59600;BME280;61855;55.030;73.326;2022-08-01T06:16:09;99390.53;;;23.77;nan
59600;BME280;61855;55.030;73.326;2022-08-01T06:18:36;99394.19;;;23.68;nan
59600;BME280;61855;55.030;73.326;2022-08-01T06:21:02;99392.81;;;23.60;nan
59600;BME280;61855;55.030;73.326;2022-08-01T06:23:28;99395.00;;;23.63;nan
59600;BME280;61855;55.030;73.326;2022-08-01T06:25:54;99399.69;;;23.68;nan
59600;BME280;61855;55.030;73.326;2022-08-01T06:28:24;99395.84;;;23.58;nan
59600;BME280;61855;55.030;73.326;2022-08-01T06:30:55;99395.84;;;23.58;nan
59600;BME280;61855;55.030;73.326;2022-08-01T06:33:22;99388.19;;;23.45;nan
59600;BME280;61855;55.030;73.326;2022-08-01T06:35:48;99392.38;;;23.13;nan
59600;BME280;61855;55.030;73.326;2022-08-01T06:38:14;99391.53;;;23.22;nan
59600;BME280;61855;55.030;73.326;2022-08-01T06:40:40;99380.81;;;23.11;nan
59600;BME280;61855;55.030;73.326;2022-08-01T06:43:06;99400.88;;;23.16;nan
59600;BME280;61855;55.030;73.326;2022-08-01T06:45:33;99390.44;;;23.13;nan
59600;BME280;61855;55.030;73.326;2022-08-01T06:48:02;99385.19;;;23.22;nan
59600;BME280;61855;55.030;73.326;2022-08-01T06:50:28;99377.47;;;23.29;nan
59600;BME280;61855;55.030;73.326;2022-08-01T06:52:54;99386.22;;;23.56;nan
59600;BME280;61855;55.030;73.326;2022-08-01T06:55:30;99373.41;;;23.85;nan
59600;BME280;61855;55.030;73.326;2022-08-01T06:57:56;99387.47;;;23.89;nan
59600;BME280;61855;55.030;73.326;2022-08-01T07:00:23;99389.66;;;23.87;nan
59600;BME280;61855;55.030;73.326;2022-08-01T07:02:54;99382.56;;;23.71;nan
59600;BME280;61855;55.030;73.326;2022-08-01T07:05:21;99382.66;;;23.50;nan
59600;BME280;61855;55.030;73.326;2022-08-01T07:07:48;99372.53;;;23.26;nan
59600;BME280;61855;55.030;73.326;2022-08-01T07:10:14;99376.41;;;23.10;nan
59600;BME280;61855;55.030;73.326;2022-08-01T07:12:40;99376.44;;;23.00;nan
59600;BME280;61855;55.030;73.326;2022-08-01T07:15:09;99374.50;;;22.95;nan
59600;BME280;61855;55.030;73.326;2022-08-01T07:17:41;99378.88;;;23.16;nan
59600;BME280;61855;55.030;73.326;2022-08-01T07:20:09;99367.00;;;23.41;nan
59600;BME280;61855;55.030;73.326;2022-08-01T07:22:36;99365.53;;;23.64;nan
59600;BME280;61855;55.030;73.326;2022-08-01T07:25:04;99372.25;;;23.96;nan
59600;BME280;61855;55.030;73.326;2022-08-01T07:27:31;99361.44;;;24.15;nan
59600;BME280;61855;55.030;73.326;2022-08-01T07:29:57;99360.19;;;24.36;nan
59600;BME280;61855;55.030;73.326;2022-08-01T07:32:23;99371.25;;;24.65;nan
59600;BME280;61855;55.030;73.326;2022-08-01T07:34:50;99369.00;;;24.72;nan
59600;BME280;61855;55.030;73.326;2022-08-01T07:37:16;99366.31;;;24.96;nan
59600;BME280;61855;55.030;73.326;2022-08-01T07:39:42;99364.19;;;24.87;nan
59600;BME280;61855;55.030;73.326;2022-08-01T07:42:08;99365.19;;;24.63;nan
59600;BME280;61855;55.030;73.326;2022-08-01T07:44:35;99372.25;;;24.45;nan
59600;BME280;61855;55.030;73.326;2022-08-01T07:47:04;99370.53;;;24.49;nan
59600;BME280;61855;55.030;73.326;2022-08-01T07:49:30;99350.63;;;24.57;nan
59600;BME280;61855;55.030;73.326;2022-08-01T07:51:57;99356.78;;;24.83;nan
59600;BME280;61855;55.030;73.326;2022-08-01T07:54:24;99366.16;;;24.82;nan
59600;BME280;61855;55.030;73.326;2022-08-01T07:56:54;99362.88;;;24.75;nan
59600;BME280;61855;55.030;73.326;2022-08-01T07:59:20;99354.06;;;24.73;nan
59600;BME280;61855;55.030;73.326;2022-08-01T08:01:49;99352.00;;;24.60;nan
59600;BME280;61855;55.030;73.326;2022-08-01T08:04:22;99358.72;;;24.10;nan
59600;BME280;61855;55.030;73.326;2022-08-01T08:06:48;99358.19;;;24.08;nan
59600;BME280;61855;55.030;73.326;2022-08-01T08:09:15;99345.19;;;24.03;nan
59600;BME280;61855;55.030;73.326;2022-08-01T08:11:45;99339.69;;;24.03;nan
59600;BME280;61855;55.030;73.326;2022-08-01T08:14:11;99349.16;;;23.87;nan
59600;BME280;61855;55.030;73.326;2022-08-01T08:16:42;99355.84;;;23.71;nan
59600;BME280;61855;55.030;73.326;2022-08-01T08:19:20;99342.63;;;23.73;nan
59600;BME280;61855;55.030;73.326;2022-08-01T08:21:46;99333.41;;;23.98;nan
59600;BME280;61855;55.030;73.326;2022-08-01T08:24:12;99341.97;;;24.35;nan
59600;BME280;61855;55.030;73.326;2022-08-01T08:26:52;99361.31;;;23.86;nan
59600;BME280;61855;55.030;73.326;2022-08-01T08:29:21;99371.47;;;23.07;nan
59600;BME280;61855;55.030;73.326;2022-08-01T08:31:48;99372.59;;;22.85;nan
59600;BME280;61855;55.030;73.326;2022-08-01T08:34:15;99390.78;;;22.86;nan
59600;BME280;61855;55.030;73.326;2022-08-01T08:36:41;99372.59;;;22.90;nan
59600;BME280;61855;55.030;73.326;2022-08-01T08:39:07;99371.97;;;23.39;nan
59600;BME280;61855;55.030;73.326;2022-08-01T08:41:33;99356.69;;;23.72;nan
59600;BME280;61855;55.030;73.326;2022-08-01T08:44:01;99369.56;;;23.86;nan
59600;BME280;61855;55.030;73.326;2022-08-01T08:46:28;99380.06;;;23.79;nan
59600;BME280;61855;55.030;73.326;2022-08-01T08:49:03;99378.09;;;23.85;nan
59600;BME280;61855;55.030;73.326;2022-08-01T08:51:34;99371.34;;;23.57;nan
59600;BME280;61855;55.030;73.326;2022-08-01T08:54:00;99378.13;;;23.80;nan
59600;BME280;61855;55.030;73.326;2022-08-01T08:56:29;99378.38;;;23.83;nan
59600;BME280;61855;55.030;73.326;2022-08-01T08:59:01;99381.66;;;23.90;nan
59600;BME280;61855;55.030;73.326;2022-08-01T09:01:28;99366.91;;;23.61;nan
59600;BME280;61855;55.030;73.326;2022-08-01T09:03:54;99383.91;;;23.78;nan
59600;BME280;61855;55.030;73.326;2022-08-01T09:06:20;99390.81;;;23.76;nan
59600;BME280;61855;55.030;73.326;2022-08-01T09:08:46;99377.09;;;23.61;nan
59600;BME280;61855;55.030;73.326;2022-08-01T09:11:17;99383.75;;;23.54;nan
59600;BME280;61855;55.030;73.326;2022-08-01T09:14:01;99390.66;;;23.47;nan
59600;BME280;61855;55.030;73.326;2022-08-01T09:16:32;99390.13;;;23.45;nan
59600;BME280;61855;55.030;73.326;2022-08-01T09:19:25;99393.16;;;23.23;nan
59600;BME280;61855;55.030;73.326;2022-08-01T09:22:03;99396.75;;;23.14;nan
59600;BME280;61855;55.030;73.326;2022-08-01T09:24:30;99391.56;;;23.02;nan
59600;BME280;61855;55.030;73.326;2022-08-01T09:26:58;99400.09;;;22.90;nan
59600;BME280;61855;55.030;73.326;2022-08-01T09:29:27;99396.25;;;22.71;nan
59600;BME280;61855;55.030;73.326;2022-08-01T09:31:55;99389.09;;;22.70;nan
59600;BME280;61855;55.030;73.326;2022-08-01T09:34:25;99377.00;;;22.71;nan
59600;BME280;61855;55.030;73.326;2022-08-01T09:39:44;99388.28;;;22.80;nan
59600;BME280;61855;55.030;73.326;2022-08-01T09:42:24;99383.06;;;22.88;nan
59600;BME280;61855;55.030;73.326;2022-08-01T09:44:55;99370.13;;;22.79;nan
59600;BME280;61855;55.030;73.326;2022-08-01T09:47:21;99376.19;;;22.86;nan
59600;BME280;61855;55.030;73.326;2022-08-01T09:49:57;99375.59;;;22.94;nan
59600;BME280;61855;55.030;73.326;2022-08-01T09:52:27;99374.22;;;23.02;nan
59600;BME280;61855;55.030;73.326;2022-08-01T09:54:57;99388.28;;;22.85;nan
59600;BME280;61855;55.030;73.326;2022-08-01T09:57:26;99386.34;;;22.80;nan
59600;BME280;61855;55.030;73.326;2022-08-01T09:59:55;99377.56;;;22.99;nan
59600;BME280;61855;55.030;73.326;2022-08-01T10:04:53;99384.66;;;23.20;nan
59600;BME280;61855;55.030;73.326;2022-08-01T10:07:20;99386.00;;;23.42;nan
59600;BME280;61855;55.030;73.326;2022-08-01T10:09:47;99376.53;;;23.69;nan
59600;BME280;61855;55.030;73.326;2022-08-01T10:12:16;99391.81;;;24.00;nan
59600;BME280;61855;55.030;73.326;2022-08-01T10:14:44;99379.38;;;24.12;nan
59600;BME280;61855;55.030;73.326;2022-08-01T10:17:13;99388.50;;;24.03;nan
59600;BME280;61855;55.030;73.326;2022-08-01T10:19:41;99403.31;;;24.17;nan
59600;BME280;61855;55.030;73.326;2022-08-01T10:22:11;99382.19;;;23.92;nan
59600;BME280;61855;55.030;73.326;2022-08-01T10:24:43;99386.97;;;23.77;nan
59600;BME280;61855;55.030;73.326;2022-08-01T10:27:10;99388.03;;;23.81;nan
59600;BME280;61855;55.030;73.326;2022-08-01T10:29:43;99388.59;;;23.83;nan
59600;BME280;61855;55.030;73.326;2022-08-01T10:32:11;99391.97;;;23.70;nan
59600;BME280;61855;55.030;73.326;2022-08-01T10:34:38;99388.06;;;23.76;nan
59600;BME280;61855;55.030;73.326;2022-08-01T10:37:14;99390.97;;;24.09;nan
59600;BME280;61855;55.030;73.326;2022-08-01T10:39:41;99384.69;;;24.38;nan
59600;BME280;61855;55.030;73.326;2022-08-01T10:42:10;99381.94;;;24.38;nan
59600;BME280;61855;55.030;73.326;2022-08-01T10:44:38;99393.09;;;24.56;nan
59600;BME280;61855;55.030;73.326;2022-08-01T10:47:08;99380.56;;;25.60;nan
59600;BME280;61855;55.030;73.326;2022-08-01T10:49:49;99378.97;;;26.52;nan
59600;BME280;61855;55.030;73.326;2022-08-01T10:52:20;99375.03;;;28.04;nan
59600;BME280;61855;55.030;73.326;2022-08-01T10:54:46;99380.34;;;28.95;nan
59600;BME280;61855;55.030;73.326;2022-08-01T10:57:13;99381.09;;;29.79;nan
59600;BME280;61855;55.030;73.326;2022-08-01T10:59:51;99357.97;;;30.77;nan
59600;BME280;61855;55.030;73.326;2022-08-01T11:02:31;99375.38;;;31.47;nan
59600;BME280;61855;55.030;73.326;2022-08-01T11:05:11;99360.75;;;31.50;nan
59600;BME280;61855;55.030;73.326;2022-08-01T11:07:52;99372.22;;;32.36;nan
59600;BME280;61855;55.030;73.326;2022-08-01T11:10:34;99377.28;;;31.08;nan
59600;BME280;61855;55.030;73.326;2022-08-01T11:13:02;99372.53;;;30.23;nan
59600;BME280;61855;55.030;73.326;2022-08-01T11:15:34;99375.13;;;29.55;nan
59600;BME280;61855;55.030;73.326;2022-08-01T11:18:29;99378.72;;;28.13;nan
59600;BME280;61855;55.030;73.326;2022-08-01T11:21:02;99384.31;;;27.45;nan
59600;BME280;61855;55.030;73.326;2022-08-01T11:23:29;99382.19;;;28.99;nan
59600;BME280;61855;55.030;73.326;2022-08-01T11:28:28;99362.56;;;30.48;nan
59600;BME280;61855;55.030;73.326;2022-08-01T11:38:50;99393.28;;;28.55;nan
59600;BME280;61855;55.030;73.326;2022-08-01T11:41:36;99424.00;;;26.76;nan
59600;BME280;61855;55.030;73.326;2022-08-01T11:46:55;99431.81;;;25.42;nan
59600;BME280;61855;55.030;73.326;2022-08-01T11:49:44;99433.72;;;25.18;nan
59600;BME280;61855;55.030;73.326;2022-08-01T11:52:27;99423.97;;;24.97;nan
59600;BME280;61855;55.030;73.326;2022-08-01T11:55:04;99421.56;;;24.91;nan
59600;BME280;61855;55.030;73.326;2022-08-01T11:57:32;99425.22;;;24.81;nan
59600;BME280;61855;55.030;73.326;2022-08-01T12:00:17;99437.28;;;24.90;nan
59600;BME280;61855;55.030;73.326;2022-08-01T12:02:45;99435.19;;;25.06;nan
59600;BME280;61855;55.030;73.326;2022-08-01T12:05:13;99451.72;;;25.39;nan
59600;BME280;61855;55.030;73.326;2022-08-01T12:07:41;99451.25;;;25.61;nan
59600;BME280;61855;55.030;73.326;2022-08-01T12:10:17;99442.75;;;25.81;nan
59600;BME280;61855;55.030;73.326;2022-08-01T12:12:55;99473.88;;;25.34;nan
59600;BME280;61855;55.030;73.326;2022-08-01T12:15:30;99451.25;;;25.61;nan
59600;BME280;61855;55.030;73.326;2022-08-01T12:17:59;99457.56;;;26.70;nan
59600;BME280;61855;55.030;73.326;2022-08-01T12:20:28;99450.50;;;27.61;nan
59600;BME280;61855;55.030;73.326;2022-08-01T12:22:56;99455.22;;;27.14;nan
59600;BME280;61855;55.030;73.326;2022-08-01T12:25:22;99482.94;;;26.77;nan
59600;BME280;61855;55.030;73.326;2022-08-01T12:27:49;99478.25;;;28.15;nan
59600;BME280;61855;55.030;73.326;2022-08-01T12:30:18;99479.78;;;29.06;nan
59600;BME280;61855;55.030;73.326;2022-08-01T12:32:48;99498.97;;;28.45;nan
59600;BME280;61855;55.030;73.326;2022-08-01T12:35:20;99494.28;;;26.38;nan
59600;BME280;61855;55.030;73.326;2022-08-01T12:37:52;99491.19;;;25.45;nan
59600;BME280;61855;55.030;73.326;2022-08-01T12:40:54;99494.78;;;25.45;nan
59600;BME280;61855;55.030;73.326;2022-08-01T12:43:19;99495.47;;;24.50;nan
59600;BME280;61855;55.030;73.326;2022-08-01T12:45:48;99489.59;;;24.17;nan
59600;BME280;61855;55.030;73.326;2022-08-01T12:48:16;99498.81;;;23.73;nan
59600;BME280;61855;55.030;73.326;2022-08-01T12:50:47;99499.72;;;23.43;nan
59600;BME280;61855;55.030;73.326;2022-08-01T12:53:15;99504.66;;;23.21;nan
59600;BME280;61855;55.030;73.326;2022-08-01T12:55:45;99515.38;;;22.87;nan
59600;BME280;61855;55.030;73.326;2022-08-01T12:58:17;99502.31;;;22.37;nan
59600;BME280;61855;55.030;73.326;2022-08-01T13:00:46;99508.25;;;22.09;nan
59600;BME280;61855;55.030;73.326;2022-08-01T13:03:17;99504.25;;;21.80;nan
59600;BME280;61855;55.030;73.326;2022-08-01T13:05:46;99515.88;;;21.50;nan
59600;BME280;61855;55.030;73.326;2022-08-01T13:08:33;99531.59;;;21.23;nan
59600;BME280;61855;55.030;73.326;2022-08-01T13:13:38;99519.94;;;20.79;nan
59600;BME280;61855;55.030;73.326;2022-08-01T13:16:05;99526.75;;;20.76;nan
59600;BME280;61855;55.030;73.326;2022-08-01T13:18:34;99521.94;;;20.62;nan
59600;BME280;61855;55.030;73.326;2022-08-01T13:21:15;99519.16;;;20.57;nan
59600;BME280;61855;55.030;73.326;2022-08-01T13:24:09;99524.34;;;20.53;nan
59600;BME280;61855;55.030;73.326;2022-08-01T13:26:50;99536.25;;;20.42;nan
59600;BME280;61855;55.030;73.326;2022-08-01T13:29:19;99529.34;;;20.35;nan
59600;BME280;61855;55.030;73.326;2022-08-01T13:31:49;99525.38;;;20.25;nan
59600;BME280;61855;55.030;73.326;2022-08-01T13:34:16;99528.22;;;20.14;nan
59600;BME280;61855;55.030;73.326;2022-08-01T13:36:42;99522.09;;;20.07;nan
59600;BME280;61855;55.030;73.326;2022-08-01T13:39:18;99536.56;;;20.02;nan
59600;BME280;61855;55.030;73.326;2022-08-01T13:42:03;99540.78;;;19.88;nan
59600;BME280;61855;55.030;73.326;2022-08-01T13:44:30;99538.78;;;19.84;nan
59600;BME280;61855;55.030;73.326;2022-08-01T13:46:56;99537.31;;;19.76;nan
59600;BME280;61855;55.030;73.326;2022-08-01T13:49:22;99536.16;;;19.72;nan
59600;BME280;61855;55.030;73.326;2022-08-01T13:51:54;99544.31;;;19.67;nan
59600;BME280;61855;55.030;73.326;2022-08-01T13:54:20;99542.31;;;19.63;nan
59600;BME280;61855;55.030;73.326;2022-08-01T13:56:46;99550.81;;;19.61;nan
59600;BME280;61855;55.030;73.326;2022-08-01T13:59:12;99548.41;;;19.48;nan
59600;BME280;61855;55.030;73.326;2022-08-01T14:01:38;99555.38;;;19.39;nan
59600;BME280;61855;55.030;73.326;2022-08-01T14:04:05;99557.91;;;19.29;nan